createdAt,value
2022-09-04T00:00:02.973Z,13.80
2022-09-04T00:03:06.973Z,13.80
2022-09-04T00:05:53.608Z,13.80
2022-09-04T00:08:52.457Z,13.70
2022-09-04T00:11:33.600Z,13.70
2022-09-04T00:14:10.437Z,13.70
2022-09-04T00:16:45.932Z,13.70
2022-09-04T00:19:26.252Z,13.70
2022-09-04T00:22:01.935Z,13.60
2022-09-04T00:24:40.124Z,13.70
2022-09-04T00:27:15.916Z,13.60
2022-09-04T00:29:55.440Z,13.60
2022-09-04T00:32:34.881Z,13.60
2022-09-04T00:35:16.249Z,13.60
2022-09-04T00:37:54.371Z,13.60
2022-09-04T00:40:31.282Z,13.50
2022-09-04T00:43:17.416Z,13.50
2022-09-04T00:45:49.877Z,13.50
2022-09-04T00:48:50.038Z,13.50
2022-09-04T00:51:46.899Z,13.40
2022-09-04T00:54:36.007Z,13.40
2022-09-04T00:57:43.626Z,13.40
2022-09-04T01:00:19.382Z,13.30
2022-09-04T01:03:30.439Z,13.30
2022-09-04T01:06:22.298Z,13.30
2022-09-04T01:09:22.243Z,13.20
2022-09-04T01:12:03.541Z,13.20
2022-09-04T01:14:41.692Z,13.20
2022-09-04T01:17:20.322Z,13.20
2022-09-04T01:19:58.956Z,13.20
2022-09-04T01:22:53.210Z,13.20
2022-09-04T01:25:56.603Z,13.10
2022-09-04T01:28:33.209Z,13.10
2022-09-04T01:31:15.037Z,13.10
2022-09-04T01:33:55.142Z,13.10
2022-09-04T01:36:34.166Z,13.10
2022-09-04T01:39:09.259Z,13.10
2022-09-04T01:41:48.536Z,13.10
2022-09-04T01:44:24.022Z,13.00
2022-09-04T01:47:03.735Z,13.00
2022-09-04T01:49:40.545Z,13.00
2022-09-04T01:52:36.967Z,13.00
2022-09-04T01:55:16.927Z,12.90
2022-09-04T01:58:04.721Z,12.90
2022-09-04T02:00:40.857Z,12.90
2022-09-04T02:03:18.208Z,12.90
2022-09-04T02:06:00.705Z,12.90
2022-09-04T02:09:02.088Z,12.90
2022-09-04T02:11:37.968Z,12.80
2022-09-04T02:14:27.875Z,12.80
2022-09-04T02:17:11.134Z,12.80
2022-09-04T02:20:03.998Z,12.80
2022-09-04T02:22:45.169Z,12.80
2022-09-04T02:25:25.275Z,12.80
2022-09-04T02:28:08.809Z,12.80
2022-09-04T02:30:54.222Z,12.80
2022-09-04T02:33:27.183Z,12.70
2022-09-04T02:36:05.959Z,12.70
2022-09-04T02:38:45.189Z,12.70
2022-09-04T02:41:24.331Z,12.70
2022-09-04T02:44:11.738Z,12.70
2022-09-04T02:46:55.914Z,12.70
2022-09-04T02:49:36.102Z,12.60
2022-09-04T02:52:16.812Z,12.60
2022-09-04T02:55:00.278Z,12.60
2022-09-04T02:57:41.586Z,12.50
2022-09-04T03:00:21.300Z,12.50
2022-09-04T03:03:03.343Z,12.50
2022-09-04T03:05:42.442Z,12.50
2022-09-04T03:08:18.754Z,12.50
2022-09-04T03:10:59.346Z,12.50
2022-09-04T03:13:35.112Z,12.40
2022-09-04T03:16:13.981Z,12.40
2022-09-04T03:19:03.736Z,12.40
2022-09-04T03:21:44.826Z,12.40
2022-09-04T03:24:21.683Z,12.40
2022-09-04T03:26:54.493Z,12.30
2022-09-04T03:29:33.066Z,12.30
2022-09-04T03:32:16.573Z,12.30
2022-09-04T03:34:59.302Z,12.30
2022-09-04T03:37:48.418Z,12.30
2022-09-04T03:40:29.507Z,12.30
2022-09-04T03:43:12.249Z,12.30
2022-09-04T03:45:51.326Z,12.30
2022-09-04T03:48:45.471Z,12.20
2022-09-04T03:51:25.870Z,12.20
2022-09-04T03:54:05.921Z,12.20
2022-09-04T03:56:56.840Z,12.10
2022-09-04T03:59:45.789Z,12.20
2022-09-04T04:02:24.075Z,12.10
2022-09-04T04:05:19.750Z,12.10
2022-09-04T04:07:55.421Z,12.10
2022-09-04T04:10:35.628Z,12.10
2022-09-04T04:13:29.437Z,12.10
2022-09-04T04:16:12.491Z,12.00
2022-09-04T04:19:01.805Z,12.00
2022-09-04T04:21:55.763Z,12.10
2022-09-04T04:24:49.537Z,12.00
2022-09-04T04:27:44.396Z,12.00
2022-09-04T04:30:19.826Z,12.00
2022-09-04T04:33:25.826Z,12.00
2022-09-04T04:36:05.547Z,12.00
2022-09-04T04:38:48.206Z,11.90
2022-09-04T04:41:54.120Z,11.90
2022-09-04T04:44:55.599Z,12.00
2022-09-04T04:47:35.395Z,12.10
2022-09-04T04:50:15.718Z,12.10
2022-09-04T04:53:02.798Z,12.20
2022-09-04T04:55:44.548Z,12.30
2022-09-04T04:58:27.653Z,12.40
2022-09-04T05:01:09.762Z,12.50
2022-09-04T05:03:51.728Z,12.60
2022-09-04T05:06:29.904Z,12.70
2022-09-04T05:09:08.962Z,12.80
2022-09-04T05:11:47.202Z,12.90
2022-09-04T05:14:27.949Z,13.00
2022-09-04T05:17:10.010Z,13.20
2022-09-04T05:19:46.971Z,13.30
2022-09-04T05:22:29.549Z,13.40
2022-09-04T05:25:11.212Z,13.40
2022-09-04T05:27:59.628Z,13.40
2022-09-04T05:30:38.362Z,13.40
2022-09-04T05:33:18.414Z,13.50
2022-09-04T05:35:53.930Z,13.40
2022-09-04T05:38:32.710Z,13.50
2022-09-04T05:41:16.956Z,13.60
2022-09-04T05:44:03.522Z,13.60
2022-09-04T05:46:45.896Z,13.80
2022-09-04T05:49:35.917Z,14.00
2022-09-04T05:52:17.688Z,14.40
2022-09-04T05:55:19.895Z,14.80
2022-09-04T05:58:07.879Z,15.10
2022-09-04T06:00:46.675Z,15.50
2022-09-04T06:03:41.436Z,15.90
2022-09-04T06:06:24.403Z,16.20
2022-09-04T06:09:31.190Z,16.50
2022-09-04T06:12:17.405Z,16.80
2022-09-04T06:15:06.325Z,17.10
2022-09-04T06:17:51.266Z,17.30
2022-09-04T06:20:37.136Z,17.40
2022-09-04T06:23:41.930Z,17.60
2022-09-04T06:26:27.464Z,17.70
2022-09-04T06:29:32.201Z,17.90
2022-09-04T06:32:05.965Z,18.00
2022-09-04T06:34:49.435Z,18.20
2022-09-04T06:37:27.200Z,18.30
2022-09-04T06:40:12.134Z,18.10
2022-09-04T06:42:54.080Z,18.10
2022-09-04T06:45:33.329Z,17.80
2022-09-04T06:48:06.712Z,17.80
2022-09-04T06:50:47.781Z,17.50
2022-09-04T06:53:28.208Z,17.40
2022-09-04T06:56:18.697Z,17.30
2022-09-04T06:59:25.519Z,17.10
2022-09-04T07:02:05.042Z,17.10
2022-09-04T07:04:47.849Z,16.90
2022-09-04T07:07:25.271Z,16.80
2022-09-04T07:10:01.727Z,16.80
2022-09-04T07:13:11.596Z,16.80
2022-09-04T07:16:12.245Z,16.80
2022-09-04T07:19:04.543Z,16.70
2022-09-04T07:21:42.191Z,16.80
2022-09-04T07:24:40.548Z,16.70
2022-09-04T07:27:18.103Z,16.90
2022-09-04T07:29:57.539Z,17.20
2022-09-04T07:32:33.889Z,17.50
2022-09-04T07:35:10.962Z,18.00
2022-09-04T07:37:50.315Z,18.40
2022-09-04T07:40:27.833Z,18.90
2022-09-04T07:43:10.577Z,19.30
2022-09-04T07:45:51.594Z,19.60
2022-09-04T07:48:29.711Z,19.80
2022-09-04T07:51:10.887Z,19.90
2022-09-04T07:54:11.750Z,20.10
2022-09-04T07:56:57.653Z,20.40
2022-09-04T07:59:49.025Z,20.50
2022-09-04T08:02:47.774Z,20.70
2022-09-04T08:05:26.516Z,20.70
2022-09-04T08:08:26.904Z,20.90
2022-09-04T08:11:21.955Z,21.20
2022-09-04T08:14:21.930Z,21.50
2022-09-04T08:17:05.670Z,21.90
2022-09-04T08:19:45.887Z,22.00
2022-09-04T08:22:28.124Z,22.10
2022-09-04T08:25:10.729Z,22.10
2022-09-04T08:27:54.701Z,22.40
2022-09-04T08:30:29.035Z,22.50
2022-09-04T08:33:16.206Z,22.70
2022-09-04T08:35:56.379Z,22.90
2022-09-04T08:38:56.897Z,23.20
2022-09-04T08:41:30.781Z,23.40
2022-09-04T08:44:27.109Z,23.60
2022-09-04T08:47:02.118Z,23.60
2022-09-04T08:49:56.307Z,23.70
2022-09-04T08:52:52.809Z,23.80
2022-09-04T08:55:37.436Z,24.00
2022-09-04T08:58:36.963Z,24.20
2022-09-04T09:01:35.677Z,24.10
2022-09-04T09:04:32.505Z,24.10
2022-09-04T09:07:29.762Z,24.10
2022-09-04T09:10:41.224Z,24.20
2022-09-04T09:13:44.384Z,24.20
2022-09-04T09:16:15.026Z,24.30
2022-09-04T09:19:12.236Z,24.40
2022-09-04T09:21:49.495Z,24.40
2022-09-04T09:25:06.367Z,24.40
2022-09-04T09:27:36.875Z,24.60
2022-09-04T09:30:14.345Z,24.80
2022-09-04T09:33:30.928Z,25.00
2022-09-04T09:36:30.164Z,25.00
2022-09-04T09:39:40.761Z,25.00
2022-09-04T09:42:26.611Z,24.90
2022-09-04T09:45:25.743Z,25.10
2022-09-04T09:48:31.125Z,25.00
2022-09-04T09:51:34.160Z,25.00
2022-09-04T09:54:28.826Z,24.90
2022-09-04T09:57:33.961Z,25.20
2022-09-04T10:00:15.820Z,25.30
2022-09-04T10:03:17.799Z,25.20
2022-09-04T10:06:30.360Z,25.20
2022-09-04T10:09:33.035Z,25.30
2022-09-04T10:12:03.883Z,25.20
2022-09-04T10:14:58.352Z,25.10
2022-09-04T10:17:53.266Z,25.10
2022-09-04T10:20:54.160Z,25.10
2022-09-04T10:23:41.483Z,25.10
2022-09-04T10:26:31.778Z,25.00
2022-09-04T10:29:26.730Z,25.00
2022-09-04T10:32:32.140Z,25.00
2022-09-04T10:35:19.246Z,24.90
2022-09-04T10:38:35.318Z,25.00
2022-09-04T10:41:31.434Z,25.10
2022-09-04T10:44:04.888Z,25.00
2022-09-04T10:46:43.187Z,25.00
2022-09-04T10:49:29.536Z,25.00
2022-09-04T10:52:17.842Z,25.00
2022-09-04T10:55:02.991Z,25.10
2022-09-04T10:57:48.464Z,24.90
2022-09-04T11:00:24.040Z,24.80
2022-09-04T11:03:29.094Z,24.70
2022-09-04T11:06:26.626Z,24.60
2022-09-04T11:09:08.644Z,24.60
2022-09-04T11:12:03.239Z,24.60
2022-09-04T11:14:58.824Z,24.60
2022-09-04T11:18:02.949Z,24.60
2022-09-04T11:21:10.881Z,24.60
2022-09-04T11:24:17.362Z,24.60
2022-09-04T11:27:20.458Z,24.60
2022-09-04T11:30:16.238Z,24.60
2022-09-04T11:33:24.228Z,24.40
2022-09-04T11:36:20.723Z,24.30
2022-09-04T11:39:20.786Z,24.20
2022-09-04T11:41:51.942Z,24.10
2022-09-04T11:44:42.484Z,24.10
2022-09-04T11:47:44.242Z,24.10
2022-09-04T11:50:23.081Z,24.20
2022-09-04T11:53:13.351Z,24.20
2022-09-04T11:56:09.129Z,24.30
2022-09-04T11:58:52.661Z,24.20
2022-09-04T12:01:24.952Z,24.10
2022-09-04T12:04:32.705Z,24.10
2022-09-04T12:07:14.464Z,24.10
2022-09-04T12:10:12.422Z,24.10
2022-09-04T12:13:14.734Z,24.10
2022-09-04T12:16:05.096Z,24.10
2022-09-04T12:19:13.610Z,23.90
2022-09-04T12:22:14.695Z,23.80
2022-09-04T12:25:08.202Z,23.80
2022-09-04T12:28:19.114Z,23.80
2022-09-04T12:30:53.069Z,23.80
2022-09-04T12:33:48.559Z,23.70
2022-09-04T12:37:01.668Z,23.80
2022-09-04T12:39:58.789Z,23.80
2022-09-04T12:42:34.749Z,23.90
2022-09-04T12:45:13.739Z,23.90
2022-09-04T12:47:55.499Z,23.90
2022-09-04T12:50:38.171Z,23.80
2022-09-04T12:53:29.152Z,23.70
2022-09-04T12:56:10.517Z,23.70
2022-09-04T12:58:53.473Z,23.70
2022-09-04T13:01:30.607Z,23.70
2022-09-04T13:04:08.925Z,23.60
2022-09-04T13:06:49.253Z,23.60
2022-09-04T13:09:28.929Z,23.60
2022-09-04T13:12:03.214Z,23.60
2022-09-04T13:15:00.017Z,23.60
2022-09-04T13:17:36.871Z,23.60
2022-09-04T13:20:15.246Z,23.50
2022-09-04T13:23:01.520Z,23.60
2022-09-04T13:25:42.476Z,23.60
2022-09-04T13:28:23.846Z,23.60
2022-09-04T13:31:23.530Z,23.60
2022-09-04T13:33:59.280Z,23.60
2022-09-04T13:36:36.841Z,23.60
2022-09-04T13:39:36.199Z,23.60
2022-09-04T13:42:40.048Z,23.60
2022-09-04T13:45:16.664Z,23.60
2022-09-04T13:47:56.064Z,23.60
2022-09-04T13:50:32.629Z,23.50
2022-09-04T13:53:11.352Z,23.60
2022-09-04T13:55:49.831Z,23.60
2022-09-04T13:58:27.311Z,23.60
2022-09-04T14:01:06.587Z,23.60
2022-09-04T14:03:44.661Z,23.60
2022-09-04T14:06:20.437Z,23.50
2022-09-04T14:09:05.560Z,23.50
2022-09-04T14:12:09.688Z,23.50
2022-09-04T14:15:11.590Z,23.50
2022-09-04T14:17:44.862Z,23.60
2022-09-04T14:20:23.635Z,23.60
2022-09-04T14:23:03.487Z,23.60
2022-09-04T14:25:34.129Z,23.60
2022-09-04T14:28:14.241Z,23.60
2022-09-04T14:30:54.637Z,23.50
2022-09-04T14:33:37.446Z,23.50
2022-09-04T14:36:22.197Z,23.50
2022-09-04T14:39:15.951Z,23.50
2022-09-04T14:41:59.387Z,23.50
2022-09-04T14:44:42.854Z,23.40
2022-09-04T14:47:26.323Z,23.40
2022-09-04T14:50:01.609Z,23.40
2022-09-04T14:52:44.993Z,23.40
2022-09-04T14:55:21.137Z,23.30
2022-09-04T14:57:56.753Z,23.30
2022-09-04T15:00:30.126Z,23.30
2022-09-04T15:03:08.967Z,23.30
2022-09-04T15:05:48.279Z,23.30
2022-09-04T15:08:39.929Z,23.30
2022-09-04T15:11:31.442Z,23.30
2022-09-04T15:14:08.075Z,23.20
2022-09-04T15:16:51.021Z,23.10
2022-09-04T15:19:31.357Z,23.10
2022-09-04T15:22:08.441Z,23.00
2022-09-04T15:24:53.844Z,23.00
2022-09-04T15:27:30.935Z,23.00
2022-09-04T15:30:09.284Z,22.90
2022-09-04T15:32:44.644Z,22.90
2022-09-04T15:35:21.063Z,22.90
2022-09-04T15:38:06.968Z,22.90
2022-09-04T15:41:05.700Z,22.80
2022-09-04T15:43:42.949Z,22.80
2022-09-04T15:46:23.488Z,22.80
2022-09-04T15:49:18.043Z,22.60
2022-09-04T15:51:56.283Z,22.70
2022-09-04T15:54:38.412Z,22.70
2022-09-04T15:57:20.332Z,22.70
2022-09-04T15:59:59.388Z,22.60
2022-09-04T16:02:36.727Z,22.70
2022-09-04T16:05:20.584Z,22.60
2022-09-04T16:08:04.130Z,22.60
2022-09-04T16:10:50.048Z,22.60
2022-09-04T16:13:58.556Z,22.50
2022-09-04T16:16:35.680Z,22.50
2022-09-04T16:19:22.884Z,22.40
2022-09-04T16:22:10.501Z,22.40
2022-09-04T16:24:46.799Z,22.40
2022-09-04T16:27:23.701Z,22.30
2022-09-04T16:30:03.259Z,22.30
2022-09-04T16:32:38.631Z,22.40
2022-09-04T16:35:19.628Z,22.20
2022-09-04T16:37:55.168Z,22.30
2022-09-04T16:40:32.544Z,22.30
2022-09-04T16:43:15.552Z,22.20
2022-09-04T16:45:54.271Z,22.20
2022-09-04T16:48:34.809Z,22.20
2022-09-04T16:51:40.583Z,22.10
2022-09-04T16:54:08.399Z,22.00
2022-09-04T16:56:43.825Z,22.00
2022-09-04T16:59:23.808Z,22.00
2022-09-04T17:02:02.957Z,21.90
2022-09-04T17:04:42.205Z,21.90
2022-09-04T17:07:20.534Z,21.90
2022-09-04T17:10:00.328Z,21.80
2022-09-04T17:12:43.790Z,21.80
2022-09-04T17:15:18.034Z,21.80
2022-09-04T17:17:57.461Z,21.70
2022-09-04T17:21:59.695Z,21.60
2022-09-04T17:28:58.809Z,21.50
2022-09-04T17:28:59.851Z,21.60
2022-09-04T17:29:36.186Z,21.40
2022-09-04T17:33:46.115Z,21.30
2022-09-04T17:40:33.053Z,21.20
2022-09-04T17:40:54.773Z,21.20
2022-09-04T17:41:36.341Z,21.10
2022-09-04T17:44:46.328Z,21.00
2022-09-04T17:47:25.421Z,21.00
2022-09-04T17:49:59.615Z,20.90
2022-09-04T17:52:39.255Z,20.80
2022-09-04T17:55:14.942Z,20.80
2022-09-04T17:57:52.677Z,20.70
2022-09-04T18:00:27.739Z,20.60
2022-09-04T18:03:04.402Z,20.60
2022-09-04T18:05:48.653Z,20.50
2022-09-04T18:08:32.903Z,20.50
2022-09-04T18:11:09.758Z,20.40
2022-09-04T18:13:45.772Z,20.40
2022-09-04T18:17:11.111Z,20.30
2022-09-04T18:19:46.841Z,20.20
2022-09-04T18:22:33.455Z,20.20
2022-09-04T18:25:17.267Z,20.10
2022-09-04T18:28:11.690Z,20.10
2022-09-04T18:37:11.171Z,20.00
2022-09-04T18:37:22.449Z,20.00
2022-09-04T18:37:24.341Z,19.90
2022-09-04T18:39:44.674Z,19.80
2022-09-04T18:50:31.684Z,19.80
2022-09-04T18:50:38.073Z,19.70
2022-09-04T18:50:39.336Z,19.70
2022-09-04T18:51:22.420Z,19.70
2022-09-04T18:53:58.648Z,19.60
2022-09-04T18:56:36.614Z,19.50
2022-09-04T18:59:10.719Z,19.50
2022-09-04T19:01:48.882Z,19.50
2022-09-04T19:04:56.459Z,19.50
2022-09-04T19:07:34.592Z,19.40
2022-09-04T19:10:15.107Z,19.40
2022-09-04T19:12:58.851Z,19.40
2022-09-04T19:15:53.884Z,19.30
2022-09-04T19:18:34.318Z,19.20
2022-09-04T19:21:33.883Z,19.20
2022-09-04T19:24:17.214Z,19.20
2022-09-04T19:27:05.999Z,19.10
2022-09-04T19:30:18.380Z,19.10
2022-09-04T19:32:58.132Z,19.00
2022-09-04T19:35:39.020Z,19.00
2022-09-04T19:45:56.196Z,18.90
2022-09-04T19:45:59.053Z,18.90
2022-09-04T19:46:03.817Z,18.80
2022-09-04T19:47:27.477Z,18.80
2022-09-04T19:53:22.449Z,18.70
2022-09-04T19:53:33.326Z,18.70
2022-09-04T19:56:13.629Z,18.60
2022-09-04T19:58:51.826Z,18.50
2022-09-04T20:01:27.482Z,18.50
2022-09-04T20:04:03.277Z,18.50
2022-09-04T20:06:40.134Z,18.40
2022-09-04T20:09:20.559Z,18.40
2022-09-04T20:11:57.083Z,18.30
2022-09-04T20:14:34.719Z,18.30
2022-09-04T20:17:22.401Z,18.20
2022-09-04T20:19:58.877Z,18.20
2022-09-04T20:22:37.579Z,18.10
2022-09-04T20:25:35.288Z,18.10
2022-09-04T20:28:18.234Z,18.00
2022-09-04T20:31:36.023Z,18.00
2022-09-04T20:34:03.426Z,18.00
2022-09-04T20:36:49.004Z,17.90
2022-09-04T20:39:27.022Z,17.90
2022-09-04T20:42:06.052Z,17.80
2022-09-04T20:45:34.368Z,17.80
2022-09-04T20:52:43.111Z,17.70
2022-09-04T20:53:00.572Z,17.60
2022-09-04T20:53:35.020Z,17.60
2022-09-04T20:58:36.800Z,17.50
2022-09-04T21:03:06.760Z,17.50
2022-09-04T21:03:22.134Z,17.40
2022-09-04T21:05:37.499Z,17.40
2022-09-04T21:08:13.920Z,17.30
2022-09-04T21:10:51.440Z,17.30
2022-09-04T21:13:30.327Z,17.20
2022-09-04T21:16:13.148Z,17.20
2022-09-04T21:19:28.233Z,17.10
2022-09-04T21:22:01.402Z,17.10
2022-09-04T21:25:01.191Z,17.10
2022-09-04T21:27:50.438Z,17.10
2022-09-04T21:30:24.453Z,17.10
2022-09-04T21:33:32.307Z,17.00
2022-09-04T21:36:26.896Z,17.00
2022-09-04T21:39:12.483Z,17.00
2022-09-04T21:41:54.211Z,16.90
2022-09-04T21:44:44.210Z,17.00
2022-09-04T21:47:44.940Z,16.90
2022-09-04T21:50:44.515Z,16.80
2022-09-04T21:53:33.256Z,16.80
2022-09-04T21:59:42.525Z,16.80
2022-09-04T22:02:36.821Z,16.80
2022-09-04T22:02:51.496Z,16.80
2022-09-04T22:05:26.173Z,16.70
2022-09-04T22:12:27.958Z,16.70
2022-09-04T22:13:34.732Z,16.70
2022-09-04T22:14:07.178Z,16.70
2022-09-04T22:16:54.536Z,16.60
2022-09-04T22:20:04.274Z,16.60
2022-09-04T22:22:57.426Z,16.50
2022-09-04T22:25:49.074Z,16.50
2022-09-04T22:28:54.172Z,16.50
2022-09-04T22:31:29.686Z,16.50
2022-09-04T22:34:19.789Z,16.50
2022-09-04T22:37:15.770Z,16.50
2022-09-04T22:40:00.446Z,16.50
2022-09-04T22:42:45.714Z,16.50
2022-09-04T22:45:47.787Z,16.50
2022-09-04T22:48:21.069Z,16.40
2022-09-04T22:51:05.604Z,16.40
2022-09-04T22:53:39.084Z,16.30
2022-09-04T22:56:24.792Z,16.30
2022-09-04T22:59:25.944Z,16.30
2022-09-04T23:02:55.413Z,16.30
2022-09-04T23:05:44.403Z,16.30
2022-09-04T23:13:42.487Z,16.20
2022-09-04T23:13:58.088Z,16.20
2022-09-04T23:14:35.996Z,16.20
2022-09-04T23:17:31.690Z,16.10
2022-09-04T23:26:30.987Z,16.10
2022-09-04T23:26:46.033Z,16.10
2022-09-04T23:27:00.831Z,16.00
2022-09-04T23:29:54.021Z,16.10
2022-09-04T23:32:50.075Z,16.00
2022-09-04T23:35:29.374Z,16.00
2022-09-04T23:38:20.136Z,16.00
2022-09-04T23:40:55.033Z,16.00
2022-09-04T23:44:08.236Z,16.00
2022-09-04T23:46:42.501Z,15.90
2022-09-04T23:49:52.139Z,15.90
2022-09-04T23:52:48.517Z,15.80
2022-09-04T23:55:41.458Z,15.90
2022-09-04T23:58:47.801Z,15.90
